Seattle, Washington
Traffic Map
Current Weather Conditions
Seattle, Washington
Overcast Moderate Rain
Overcast
18°
Feels Like: 18°
Wind Chill: 18° Ceiling: 6500
Heat Index: 18° Visibility: 3mi
Dew Point: 14° Wind: 8mph
Humidity: 78% Direction: 190° (S)
Pressure: 29.59in Gusts: 21mph
Raw Report DataKBFI 291253Z 19007G18KT 3SM RA FEW045 BKN065 OVC085 18/14 A2959 RMK AO2 RAB36 SLP021 P0001 T01830144
Traffic Incident Summary
Active as of:
Severity:
Category:
InformationThere was an issue retrieving the traffic information for this location. Please try a different location or try again shortly.
Advertisements
Track Severe Weather on mobile